Time;durP1;ratioP1;P1;durP2;ratioP2;P2;SDS_P1;SDS_P2;PMS_P1;PMS_P2;Temp;Humidity;BMP_temperature;BMP_pressure;BME280_temperature;BME280_humidity;BME280_pressure;Samples;Min_cycle;Max_cycle;Signal;HPM_P1;HPM_P2
2022/03/24 00:01:28;;;;;;;;;;;6.00;99.90;;;;;;5052433;28;19931;-49
2022/03/24 00:03:53;;;;;;;;;;;6.00;99.90;;;;;;5052723;28;19971;-48
2022/03/24 00:06:19;;;;;;;;;;;6.00;99.90;;;;;;5034941;28;19987;-49
2022/03/24 00:08:44;;;;;;;;;;;5.90;99.90;;;;;;5052607;28;19925;-49
2022/03/24 00:11:10;;;;;;;;;;;5.90;99.90;;;;;;5052574;28;19925;-48
2022/03/24 00:13:36;;;;;;;;;;;5.90;99.90;;;;;;5052458;28;19929;-49
2022/03/24 00:16:02;;;;;;;;;;;5.80;99.90;;;;;;5052522;28;20337;-49
2022/03/24 00:18:31;;;;;;;;;;;5.90;99.90;;;;;;5052370;28;20356;-49
2022/03/24 00:20:57;;;;;;;;;;;5.80;99.90;;;;;;5052502;28;19931;-49
2022/03/24 00:23:22;;;;;;;;;;;5.80;99.90;;;;;;5052911;28;20019;-50
2022/03/24 00:25:48;;;;;;;;;;;5.80;99.90;;;;;;5052341;28;19925;-49
2022/03/24 00:28:13;;;;;;;;;;;5.80;99.90;;;;;;5034399;28;19932;-52
2022/03/24 00:30:38;;;;;;;;;;;5.80;99.90;;;;;;5052065;28;19925;-49
2022/03/24 00:33:04;;;;;;;;;;;5.70;99.90;;;;;;5052281;28;20019;-49
2022/03/24 00:35:30;;;;;;;;;;;5.70;99.90;;;;;;5052287;28;19929;-49
2022/03/24 00:37:55;;;;;;;;;;;5.70;99.90;;;;;;5052408;28;19925;-49
2022/03/24 00:40:21;;;;;;;;;;;5.60;99.90;;;;;;5052134;28;19925;-49
2022/03/24 00:42:46;;;;;;;;;;;5.60;99.90;;;;;;5052435;28;20415;-48
2022/03/24 00:45:15;;;;;;;;;;;5.50;99.90;;;;;;5051052;28;19925;-50
2022/03/24 00:47:41;;;;;;;;;;;5.50;99.90;;;;;;5052277;28;19925;-48
2022/03/24 00:50:07;;;;;;;;;;;5.50;99.90;;;;;;5052425;28;19925;-51
2022/03/24 00:52:34;;;;;;;;;;;5.40;99.90;;;;;;5051872;28;20327;-48
2022/03/24 00:55:00;;;;;;;;;;;5.40;99.90;;;;;;5052046;28;20391;-48
2022/03/24 00:57:25;;;;;;;;;;;5.40;99.90;;;;;;5052090;28;20070;-52
2022/03/24 00:59:51;;;;;;;;;;;5.40;99.90;;;;;;5051828;28;19929;-49
2022/03/24 01:02:17;;;;;;;;;;;;;;;;;;5034138;28;19931;-49
2022/03/24 01:04:42;;;;;;;;;;;5.20;99.90;;;;;;5052014;28;20390;-48
2022/03/24 01:07:08;;;;;;;;;;;5.20;99.90;;;;;;5052033;28;19925;-48
2022/03/24 01:09:34;;;;;;;;;;;5.10;99.90;;;;;;5052005;28;19979;-48
2022/03/24 01:12:02;;;;;;;;;;;5.20;99.90;;;;;;5052110;28;19929;-52
2022/03/24 01:14:27;;;;;;;;;;;5.10;99.90;;;;;;5052195;28;20027;-51
2022/03/24 01:16:53;;;;;;;;;;;5.10;99.90;;;;;;5036095;28;19964;-51
2022/03/24 01:19:19;;;;;;;;;;;5.00;99.90;;;;;;5055935;28;19986;-50
2022/03/24 01:21:44;;;;;;;;;;;5.00;99.90;;;;;;5055685;28;19932;-51
2022/03/24 01:24:10;;;;;;;;;;;4.90;99.90;;;;;;5056067;28;20421;-50
2022/03/24 01:26:36;;;;;;;;;;;4.90;99.90;;;;;;5055763;28;19932;-49
2022/03/24 01:29:02;;;;;;;;;;;4.80;99.90;;;;;;5055282;28;19928;-51
2022/03/24 01:31:28;;;;;;;;;;;4.80;99.90;;;;;;5055662;28;20070;-52
2022/03/24 01:33:54;;;;;;;;;;;4.80;99.90;;;;;;5055554;28;20401;-52
2022/03/24 01:36:20;;;;;;;;;;;4.80;99.90;;;;;;5055345;28;19929;-51
2022/03/24 01:38:46;;;;;;;;;;;4.80;99.90;;;;;;5037383;28;20008;-49
2022/03/24 01:41:11;;;;;;;;;;;4.70;99.90;;;;;;5055408;28;19925;-52
2022/03/24 01:43:37;;;;;;;;;;;4.70;99.90;;;;;;5037624;28;19935;-51
2022/03/24 01:46:03;;;;;;;;;;;4.60;99.90;;;;;;5037243;28;20405;-49
2022/03/24 01:48:28;;;;;;;;;;;4.60;99.90;;;;;;5055094;28;19925;-49
2022/03/24 01:50:54;;;;;;;;;;;4.60;99.90;;;;;;5054839;28;19929;-51
2022/03/24 01:53:19;;;;;;;;;;;4.50;99.90;;;;;;5054953;28;19979;-48
2022/03/24 01:55:46;;;;;;;;;;;4.50;99.90;;;;;;5054863;28;19925;-51
2022/03/24 01:58:12;;;;;;;;;;;4.50;99.90;;;;;;5054752;28;19932;-48
2022/03/24 02:00:38;;;;;;;;;;;4.50;99.90;;;;;;5054843;28;19932;-48
2022/03/24 02:03:05;;;;;;;;;;;4.50;99.90;;;;;;5054916;28;19925;-50
2022/03/24 02:05:31;;;;;;;;;;;4.50;99.90;;;;;;5054929;28;19931;-52
2022/03/24 02:08:00;;;;;;;;;;;4.40;99.90;;;;;;5037185;28;19925;-51
2022/03/24 02:10:26;;;;;;;;;;;4.30;99.90;;;;;;5054525;28;20220;-50
2022/03/24 02:12:54;;;;;;;;;;;4.30;99.90;;;;;;5054878;28;19925;-48
2022/03/24 02:15:20;;;;;;;;;;;4.30;99.90;;;;;;5054758;28;20328;-48
2022/03/24 02:17:46;;;;;;;;;;;4.30;99.90;;;;;;5054654;28;20012;-49
2022/03/24 02:20:12;;;;;;;;;;;4.30;99.90;;;;;;5054534;28;19925;-49
2022/03/24 02:22:38;;;;;;;;;;;4.30;99.90;;;;;;5054360;28;20298;-48
2022/03/24 02:25:03;;;;;;;;;;;4.30;99.90;;;;;;5054302;28;19947;-47
2022/03/24 02:27:29;;;;;;;;;;;4.20;99.90;;;;;;5053517;28;19925;-49
2022/03/24 02:29:54;;;;;;;;;;;4.20;99.90;;;;;;5036562;28;19925;-48
2022/03/24 02:32:20;;;;;;;;;;;4.20;99.90;;;;;;5054385;28;19924;-48
2022/03/24 02:34:51;;;;;;;;;;;4.30;99.90;;;;;;5054308;28;19925;-47
2022/03/24 02:37:19;;;;;;;;;;;4.30;99.90;;;;;;5054267;28;20347;-48
2022/03/24 02:39:49;;;;;;;;;;;4.20;99.90;;;;;;5053970;28;19925;-48
2022/03/24 02:42:16;;;;;;;;;;;4.20;99.90;;;;;;5054171;28;19925;-49
2022/03/24 02:44:43;;;;;;;;;;;4.10;99.90;;;;;;5054086;28;19925;-48
2022/03/24 02:47:10;;;;;;;;;;;4.10;99.90;;;;;;5053939;28;19924;-48
2022/03/24 02:49:43;;;;;;;;;;;4.10;99.90;;;;;;5053856;28;19924;-48
2022/03/24 02:52:09;;;;;;;;;;;4.10;99.90;;;;;;5053714;28;19924;-49
2022/03/24 02:54:36;;;;;;;;;;;4.00;99.90;;;;;;5053918;28;19924;-48
2022/03/24 02:57:02;;;;;;;;;;;4.00;99.90;;;;;;5053859;28;19939;-48
2022/03/24 02:59:27;;;;;;;;;;;3.90;99.90;;;;;;5053419;28;20011;-48
2022/03/24 03:01:55;;;;;;;;;;;3.90;99.90;;;;;;5053689;28;19933;-48
2022/03/24 03:04:21;;;;;;;;;;;3.90;99.90;;;;;;5053648;28;20282;-49
2022/03/24 03:06:46;;;;;;;;;;;3.80;99.90;;;;;;5053486;28;19924;-49
2022/03/24 03:09:16;;;;;;;;;;;3.80;99.90;;;;;;5053676;28;19925;-48
2022/03/24 03:11:44;;;;;;;;;;;3.80;99.90;;;;;;5053556;28;19947;-49
2022/03/24 03:14:11;;;;;;;;;;;3.70;99.90;;;;;;5053437;28;20007;-48
2022/03/24 03:16:38;;;;;;;;;;;3.70;99.90;;;;;;5053431;28;19925;-48
2022/03/24 03:19:03;;;;;;;;;;;3.70;99.90;;;;;;5053258;28;20320;-49
2022/03/24 03:21:29;;;;;;;;;;;3.60;99.90;;;;;;5053242;28;19924;-48
2022/03/24 03:23:54;;;;;;;;;;;3.60;99.90;;;;;;5053431;28;20386;-47
2022/03/24 03:26:20;;;;;;;;;;;3.60;99.90;;;;;;5053267;28;19960;-48
2022/03/24 03:28:45;;;;;;;;;;;3.50;99.90;;;;;;5053477;28;19924;-49
2022/03/24 03:31:11;;;;;;;;;;;3.50;99.90;;;;;;5053212;28;20023;-47
2022/03/24 03:33:36;;;;;;;;;;;3.50;99.90;;;;;;5035397;28;19924;-49
2022/03/24 03:36:03;;;;;;;;;;;3.50;99.90;;;;;;5035215;28;19925;-47
2022/03/24 03:38:29;;;;;;;;;;;3.50;99.90;;;;;;5052886;28;19925;-49
2022/03/24 03:40:55;;;;;;;;;;;3.40;99.90;;;;;;5052903;28;20326;-48
2022/03/24 03:43:22;;;;;;;;;;;3.40;99.90;;;;;;5053002;28;19968;-47
2022/03/24 03:45:48;;;;;;;;;;;3.40;99.90;;;;;;5052928;28;19946;-50
2022/03/24 03:48:16;;;;;;;;;;;3.30;99.90;;;;;;5052837;28;20366;-48
2022/03/24 03:50:42;;;;;;;;;;;3.30;99.90;;;;;;5034848;28;20005;-49
2022/03/24 03:53:08;;;;;;;;;;;3.30;99.90;;;;;;5052550;28;19954;-48
2022/03/24 03:55:34;;;;;;;;;;;3.20;99.90;;;;;;5035221;28;19964;-48
2022/03/24 03:58:00;;;;;;;;;;;3.20;99.90;;;;;;5052814;28;19929;-47
2022/03/24 04:03:09;;;;;;;;;;;3.10;99.90;;;;;;5052675;28;19932;-48
2022/03/24 04:05:34;;;;;;;;;;;3.10;99.90;;;;;;5034896;28;19925;-47
2022/03/24 04:08:03;;;;;;;;;;;3.10;99.90;;;;;;5053017;28;19925;-48
2022/03/24 04:10:30;;;;;;;;;;;3.10;99.90;;;;;;5034672;28;19924;-50
2022/03/24 04:12:58;;;;;;;;;;;3.10;99.90;;;;;;5052663;28;20023;-49
2022/03/24 04:15:24;;;;;;;;;;;3.10;99.90;;;;;;5052464;28;19968;-48
2022/03/24 04:17:52;;;;;;;;;;;3.00;99.90;;;;;;5052648;28;20271;-48
2022/03/24 04:20:20;;;;;;;;;;;3.10;99.90;;;;;;5052789;28;19924;-48
2022/03/24 04:22:50;;;;;;;;;;;3.00;99.90;;;;;;5052616;28;19924;-48
2022/03/24 04:25:20;;;;;;;;;;;3.00;99.90;;;;;;5052497;28;20017;-48
2022/03/24 04:27:45;;;;;;;;;;;3.00;99.90;;;;;;5052481;28;20087;-48
2022/03/24 04:30:12;;;;;;;;;;;2.90;99.90;;;;;;5052445;28;20390;-48
2022/03/24 04:32:40;;;;;;;;;;;2.90;99.90;;;;;;5052617;28;19990;-47
2022/03/24 04:35:06;;;;;;;;;;;2.90;99.90;;;;;;5052240;28;20302;-48
2022/03/24 04:37:32;;;;;;;;;;;2.90;99.90;;;;;;5052411;28;20299;-48
2022/03/24 04:39:57;;;;;;;;;;;2.90;99.90;;;;;;5052259;28;19932;-47
2022/03/24 04:42:23;;;;;;;;;;;2.80;99.90;;;;;;5052134;28;19925;-49
2022/03/24 04:44:48;;;;;;;;;;;2.80;99.90;;;;;;5052046;28;20069;-48
2022/03/24 04:47:15;;;;;;;;;;;2.80;99.90;;;;;;5052374;28;20072;-49
2022/03/24 04:49:41;;;;;;;;;;;2.80;99.90;;;;;;5052117;28;19929;-48
2022/03/24 04:52:07;;;;;;;;;;;2.80;99.90;;;;;;5054645;28;19963;-49
2022/03/24 04:54:32;;;;;;;;;;;2.70;99.90;;;;;;5056109;28;19947;-48
2022/03/24 04:56:58;;;;;;;;;;;2.70;99.90;;;;;;5055910;28;19929;-48
2022/03/24 04:59:23;;;;;;;;;;;2.70;99.90;;;;;;5055643;28;19925;-48
2022/03/24 05:01:49;;;;;;;;;;;2.70;99.90;;;;;;5037958;28;19925;-48
2022/03/24 05:04:15;;;;;;;;;;;2.70;99.90;;;;;;5037840;28;20400;-48
2022/03/24 05:06:41;;;;;;;;;;;2.70;99.90;;;;;;5055935;28;19924;-48
2022/03/24 05:09:07;;;;;;;;;;;2.70;99.90;;;;;;5055791;28;19925;-49
2022/03/24 05:11:32;;;;;;;;;;;2.70;99.90;;;;;;5055734;28;20295;-48
2022/03/24 05:13:58;;;;;;;;;;;;;;;;;;5055621;28;20298;-48
2022/03/24 05:16:24;;;;;;;;;;;2.70;99.90;;;;;;5055822;28;19925;-48
2022/03/24 05:18:49;;;;;;;;;;;2.60;99.90;;;;;;5037972;28;19928;-49
2022/03/24 05:21:15;;;;;;;;;;;2.60;99.90;;;;;;5055385;28;19972;-48
2022/03/24 05:23:40;;;;;;;;;;;2.60;99.90;;;;;;5055778;28;19933;-48
2022/03/24 05:26:07;;;;;;;;;;;2.60;99.90;;;;;;5055620;28;19932;-48
2022/03/24 05:28:33;;;;;;;;;;;2.60;99.90;;;;;;5037638;28;19994;-49
2022/03/24 05:30:58;;;;;;;;;;;2.60;99.90;;;;;;5055570;28;19924;-51
2022/03/24 05:33:24;;;;;;;;;;;2.60;99.90;;;;;;5055369;28;20270;-49
2022/03/24 05:35:50;;;;;;;;;;;2.60;99.90;;;;;;5055244;28;19979;-50
2022/03/24 05:38:16;;;;;;;;;;;2.70;99.90;;;;;;5055715;28;19925;-51
2022/03/24 05:40:41;;;;;;;;;;;2.70;99.90;;;;;;5055314;28;19931;-50
2022/03/24 05:43:07;;;;;;;;;;;2.70;99.90;;;;;;5055104;28;19975;-52
2022/03/24 05:45:32;;;;;;;;;;;2.80;99.90;;;;;;5055321;28;20016;-52
2022/03/24 05:47:57;;;;;;;;;;;2.80;99.90;;;;;;5055063;28;19932;-47
2022/03/24 05:50:24;;;;;;;;;;;2.90;99.90;;;;;;5037592;28;19924;-49
2022/03/24 05:52:50;;;;;;;;;;;2.90;99.90;;;;;;5054964;28;19936;-48
2022/03/24 05:55:16;;;;;;;;;;;2.90;99.90;;;;;;5055094;28;19925;-49
2022/03/24 05:57:42;;;;;;;;;;;2.90;99.90;;;;;;5055074;28;19932;-48
2022/03/24 06:00:08;;;;;;;;;;;2.90;99.90;;;;;;5036620;28;19925;-49
2022/03/24 06:02:34;;;;;;;;;;;3.00;99.90;;;;;;5054729;28;20039;-48
2022/03/24 06:05:00;;;;;;;;;;;3.00;99.90;;;;;;5054669;28;19963;-47
2022/03/24 06:07:25;;;;;;;;;;;3.00;99.90;;;;;;5054778;28;19932;-47
2022/03/24 06:09:51;;;;;;;;;;;3.10;99.90;;;;;;5037121;28;19925;-48
2022/03/24 06:12:17;;;;;;;;;;;3.20;99.90;;;;;;5054594;28;19999;-48
2022/03/24 06:14:42;;;;;;;;;;;3.30;99.90;;;;;;5054770;28;19925;-49
2022/03/24 06:17:09;;;;;;;;;;;3.30;99.90;;;;;;5054550;28;19967;-50
2022/03/24 06:19:35;;;;;;;;;;;3.40;99.90;;;;;;5054321;28;19932;-48
2022/03/24 06:22:04;;;;;;;;;;;3.50;99.90;;;;;;5054301;28;19925;-48
2022/03/24 06:24:30;;;;;;;;;;;4.00;99.90;;;;;;5036531;28;19929;-50
2022/03/24 06:26:57;;;;;;;;;;;4.80;99.90;;;;;;5054041;28;20333;-47
2022/03/24 06:29:22;;;;;;;;;;;5.70;99.90;;;;;;5054392;28;20272;-49
2022/03/24 06:31:48;;;;;;;;;;;6.50;99.90;;;;;;5054241;28;20007;-49
2022/03/24 06:34:13;;;;;;;;;;;7.10;99.90;;;;;;5054169;28;20294;-47
2022/03/24 06:36:39;;;;;;;;;;;7.60;99.90;;;;;;5053973;28;20023;-49
2022/03/24 06:39:05;;;;;;;;;;;8.10;99.90;;;;;;5053927;28;20024;-52
2022/03/24 06:41:30;;;;;;;;;;;8.60;99.90;;;;;;5053641;28;19925;-50
2022/03/24 06:43:57;;;;;;;;;;;9.10;99.90;;;;;;5053688;28;19925;-49
2022/03/24 06:46:23;;;;;;;;;;;9.60;99.90;;;;;;5053937;28;19925;-51
2022/03/24 06:48:49;;;;;;;;;;;9.90;99.90;;;;;;5053921;28;19924;-47
2022/03/24 06:51:14;;;;;;;;;;;10.30;99.90;;;;;;5053306;28;19932;-50
2022/03/24 06:53:40;;;;;;;;;;;10.60;99.90;;;;;;5053996;28;20015;-50
2022/03/24 06:56:06;;;;;;;;;;;10.90;99.90;;;;;;5053342;28;19925;-49
2022/03/24 06:58:32;;;;;;;;;;;11.30;99.90;;;;;;5053500;28;19979;-51
2022/03/24 07:00:57;;;;;;;;;;;11.40;99.90;;;;;;5053443;28;19925;-49
2022/03/24 07:03:23;;;;;;;;;;;11.50;99.90;;;;;;5053445;28;19932;-52
2022/03/24 07:05:48;;;;;;;;;;;11.50;99.90;;;;;;5053616;28;19978;-52
2022/03/24 07:08:14;;;;;;;;;;;11.70;99.90;;;;;;5053234;28;19925;-49
2022/03/24 07:10:39;;;;;;;;;;;11.60;99.60;;;;;;5053082;28;19925;-49
2022/03/24 07:13:05;;;;;;;;;;;11.70;99.90;;;;;;5053319;28;20019;-48
2022/03/24 07:15:31;;;;;;;;;;;11.70;99.90;;;;;;5052755;28;19932;-49
2022/03/24 07:17:56;;;;;;;;;;;11.20;99.90;;;;;;5053043;28;19925;-50
2022/03/24 07:20:23;;;;;;;;;;;10.70;99.90;;;;;;5035268;28;19960;-48
2022/03/24 07:22:48;;;;;;;;;;;10.40;99.90;;;;;;5053042;28;19935;-50
2022/03/24 07:25:14;;;;;;;;;;;9.90;99.90;;;;;;5052841;28;19925;-49
2022/03/24 07:27:42;;;;;;;;;;;9.70;99.90;;;;;;5035333;28;19932;-48
2022/03/24 07:30:09;;;;;;;;;;;9.50;99.90;;;;;;5035568;28;19968;-51
2022/03/24 07:32:35;;;;;;;;;;;9.20;99.90;;;;;;5053190;28;19925;-49
2022/03/24 07:35:00;;;;;;;;;;;9.00;99.90;;;;;;5053013;28;20283;-50
2022/03/24 07:37:27;;;;;;;;;;;9.10;99.90;;;;;;5052861;28;19971;-49
2022/03/24 07:39:52;;;;;;;;;;;9.10;99.90;;;;;;5052960;28;19929;-48
2022/03/24 07:42:18;;;;;;;;;;;9.20;99.90;;;;;;5053081;28;20283;-51
2022/03/24 07:44:44;;;;;;;;;;;9.10;99.90;;;;;;5052755;28;20028;-49
2022/03/24 07:47:09;;;;;;;;;;;9.20;99.90;;;;;;5052773;28;20010;-49
2022/03/24 07:49:35;;;;;;;;;;;9.10;99.90;;;;;;5052920;28;19972;-51
2022/03/24 07:52:01;;;;;;;;;;;9.30;99.90;;;;;;5052593;28;20003;-49
2022/03/24 07:54:38;;;;;;;;;;;9.30;99.90;;;;;;5052584;28;19979;-48
2022/03/24 07:57:05;;;;;;;;;;;9.50;99.90;;;;;;5052868;28;19921;-50
2022/03/24 07:59:30;;;;;;;;;;;9.50;99.90;;;;;;5052681;28;19970;-49
2022/03/24 08:01:55;;;;;;;;;;;9.50;99.90;;;;;;5052515;28;20011;-48
2022/03/24 08:04:21;;;;;;;;;;;9.60;99.90;;;;;;5052525;28;19925;-49
2022/03/24 08:06:46;;;;;;;;;;;9.70;99.90;;;;;;5052572;28;19925;-48
2022/03/24 08:09:12;;;;;;;;;;;9.90;99.90;;;;;;5052995;28;19925;-47
2022/03/24 08:11:37;;;;;;;;;;;10.00;99.90;;;;;;5052822;28;20387;-53
2022/03/24 08:14:03;;;;;;;;;;;10.20;99.90;;;;;;5052891;28;19925;-50
2022/03/24 08:16:30;;;;;;;;;;;10.20;99.90;;;;;;5035474;28;19960;-49
2022/03/24 08:18:55;;;;;;;;;;;10.40;99.90;;;;;;5052854;28;19925;-49
2022/03/24 08:21:21;;;;;;;;;;;10.50;99.90;;;;;;5052287;28;19931;-49
2022/03/24 08:23:46;;;;;;;;;;;10.50;99.90;;;;;;5052253;28;20390;-49
2022/03/24 08:26:12;;;;;;;;;;;10.70;99.90;;;;;;5053323;28;19932;-48
2022/03/24 08:28:38;;;;;;;;;;;10.90;99.90;;;;;;5056457;28;19925;-48
2022/03/24 08:31:03;;;;;;;;;;;11.00;99.90;;;;;;5056434;28;19925;-48
2022/03/24 08:33:29;;;;;;;;;;;11.00;99.90;;;;;;5038567;28;19925;-48
2022/03/24 08:35:55;;;;;;;;;;;11.20;99.90;;;;;;5056850;28;19932;-49
2022/03/24 08:38:20;;;;;;;;;;;11.40;99.90;;;;;;5056593;28;19932;-49
2022/03/24 08:40:46;;;;;;;;;;;11.60;99.90;;;;;;5056233;28;19932;-48
2022/03/24 08:43:12;;;;;;;;;;;11.80;99.20;;;;;;5056389;28;20015;-52
2022/03/24 08:45:38;;;;;;;;;;;11.80;99.90;;;;;;5056291;28;19956;-48
2022/03/24 08:48:03;;;;;;;;;;;11.90;99.90;;;;;;5056096;28;19931;-49
2022/03/24 08:50:29;;;;;;;;;;;12.10;98.10;;;;;;5056110;28;19976;-49
2022/03/24 08:52:55;;;;;;;;;;;12.20;98.40;;;;;;5055530;28;19932;-49
2022/03/24 08:55:21;;;;;;;;;;;12.30;99.20;;;;;;5056133;28;19948;-48
2022/03/24 08:57:47;;;;;;;;;;;12.40;98.60;;;;;;5038030;28;19925;-48
2022/03/24 09:00:15;;;;;;;;;;;12.50;98.30;;;;;;5056046;28;20378;-51
2022/03/24 09:02:42;;;;;;;;;;;12.70;98.60;;;;;;5056286;28;19975;-48
2022/03/24 09:05:08;;;;;;;;;;;12.80;95.30;;;;;;5055673;28;19924;-48
2022/03/24 09:07:34;;;;;;;;;;;12.90;92.60;;;;;;5055925;28;20019;-49
2022/03/24 09:09:59;;;;;;;;;;;12.90;90.90;;;;;;5055757;28;20011;-49
2022/03/24 09:12:25;;;;;;;;;;;13.00;92.50;;;;;;5055873;28;20441;-48
2022/03/24 09:14:50;;;;;;;;;;;13.00;89.50;;;;;;5037777;28;19925;-48
2022/03/24 09:17:16;;;;;;;;;;;13.20;90.20;;;;;;5055656;28;19925;-48
2022/03/24 09:19:41;;;;;;;;;;;13.40;90.90;;;;;;5055626;28;19916;-48
2022/03/24 09:22:06;;;;;;;;;;;13.50;89.50;;;;;;5055634;28;19954;-49
2022/03/24 09:24:33;;;;;;;;;;;13.50;84.60;;;;;;5055539;28;19925;-51
2022/03/24 09:26:58;;;;;;;;;;;13.50;85.70;;;;;;5055493;28;19925;-51
2022/03/24 09:29:24;;;;;;;;;;;13.50;85.40;;;;;;5055556;28;20011;-49
2022/03/24 09:31:49;;;;;;;;;;;13.70;86.30;;;;;;5055439;28;19956;-48
2022/03/24 09:34:15;;;;;;;;;;;13.70;84.00;;;;;;5055312;28;20358;-49
2022/03/24 09:36:40;;;;;;;;;;;13.80;83.40;;;;;;5054697;28;20271;-50
2022/03/24 09:39:07;;;;;;;;;;;14.00;83.40;;;;;;5055322;28;19925;-49
2022/03/24 09:41:33;;;;;;;;;;;13.90;82.50;;;;;;5055227;28;20069;-51
2022/03/24 09:43:58;;;;;;;;;;;14.10;83.80;;;;;;5055244;28;20388;-49
2022/03/24 09:46:26;;;;;;;;;;;14.10;82.80;;;;;;5055077;28;20027;-49
2022/03/24 09:48:52;;;;;;;;;;;14.20;83.80;;;;;;5055039;28;20413;-48
2022/03/24 09:51:18;;;;;;;;;;;14.30;83.50;;;;;;5055008;28;19925;-50
2022/03/24 09:53:43;;;;;;;;;;;14.30;82.40;;;;;;5055109;28;19925;-47
2022/03/24 09:56:09;;;;;;;;;;;14.50;81.70;;;;;;5037021;28;19925;-47
2022/03/24 09:58:34;;;;;;;;;;;14.60;81.70;;;;;;5055002;28;19925;-49
2022/03/24 10:01:00;;;;;;;;;;;14.70;80.40;;;;;;5054859;28;19925;-47
2022/03/24 10:03:26;;;;;;;;;;;14.80;79.70;;;;;;5054795;28;20019;-48
2022/03/24 10:05:59;;;;;;;;;;;14.80;78.20;;;;;;5054837;28;19932;-47
2022/03/24 10:08:25;;;;;;;;;;;15.00;78.30;;;;;;5054967;28;20058;-46
2022/03/24 10:10:55;;;;;;;;;;;15.10;76.70;;;;;;5054690;28;19974;-47
2022/03/24 10:13:39;;;;;;;;;;;15.10;76.10;;;;;;5054616;28;19925;-47
2022/03/24 10:16:05;;;;;;;;;;;15.20;73.90;;;;;;5054591;28;19929;-49
2022/03/24 10:18:30;;;;;;;;;;;15.50;76.90;;;;;;5054640;28;19925;-49
2022/03/24 10:21:00;;;;;;;;;;;15.60;73.60;;;;;;5054504;28;19925;-49
2022/03/24 10:23:25;;;;;;;;;;;15.70;74.40;;;;;;5054427;28;19924;-49
2022/03/24 10:25:52;;;;;;;;;;;15.80;74.20;;;;;;5054332;28;19931;-50
2022/03/24 10:28:18;;;;;;;;;;;15.90;71.60;;;;;;5054403;28;19967;-48
2022/03/24 10:30:49;;;;;;;;;;;15.90;71.10;;;;;;5036326;28;19960;-50
2022/03/24 10:33:34;;;;;;;;;;;15.90;73.10;;;;;;5054395;28;20310;-48
2022/03/24 10:36:12;;;;;;;;;;;16.10;73.30;;;;;;5020203;28;19925;-49
2022/03/24 10:38:48;;;;;;;;;;;16.20;71.30;;;;;;5054173;28;19951;-51
2022/03/24 10:41:24;;;;;;;;;;;16.10;68.40;;;;;;5054327;28;19925;-49
2022/03/24 10:43:53;;;;;;;;;;;16.20;68.90;;;;;;5054406;28;19929;-51
2022/03/24 10:46:20;;;;;;;;;;;16.40;68.80;;;;;;5054875;28;19925;-53
2022/03/24 10:48:49;;;;;;;;;;;16.50;70.80;;;;;;5053404;28;20024;-49
2022/03/24 10:51:28;;;;;;;;;;;16.60;65.90;;;;;;5053789;28;19932;-48
2022/03/24 10:54:02;;;;;;;;;;;16.60;61.80;;;;;;5054196;28;20367;-50
2022/03/24 10:56:30;;;;;;;;;;;16.80;62.20;;;;;;5054220;28;19971;-48
2022/03/24 10:58:58;;;;;;;;;;;16.90;63.90;;;;;;5035850;28;19936;-51
2022/03/24 11:01:24;;;;;;;;;;;16.90;64.70;;;;;;5053736;28;19924;-49
2022/03/24 11:03:50;;;;;;;;;;;17.00;63.90;;;;;;5035661;28;20020;-50
2022/03/24 11:06:17;;;;;;;;;;;17.10;64.10;;;;;;5036008;28;19980;-49
2022/03/24 11:08:43;;;;;;;;;;;17.10;59.90;;;;;;5053671;28;19925;-50
2022/03/24 11:11:18;;;;;;;;;;;17.20;58.50;;;;;;5053978;28;19931;-52
2022/03/24 11:13:48;;;;;;;;;;;17.20;58.10;;;;;;5053515;28;19924;-48
2022/03/24 11:16:14;;;;;;;;;;;17.20;56.60;;;;;;5053569;28;20387;-49
2022/03/24 11:18:40;;;;;;;;;;;17.10;53.30;;;;;;5035382;28;20022;-49
2022/03/24 11:21:17;;;;;;;;;;;17.20;54.50;;;;;;5053349;28;20294;-48
2022/03/24 11:23:44;;;;;;;;;;;17.00;53.50;;;;;;5053375;28;20024;-49
2022/03/24 11:26:10;;;;;;;;;;;17.30;55.10;;;;;;5053335;28;19929;-50
2022/03/24 11:28:36;;;;;;;;;;;17.40;56.20;;;;;;5053207;28;19932;-50
2022/03/24 11:31:09;;;;;;;;;;;17.40;54.70;;;;;;5053154;28;20370;-49
2022/03/24 11:33:40;;;;;;;;;;;17.50;55.50;;;;;;5053243;28;19925;-51
2022/03/24 11:36:07;;;;;;;;;;;17.70;55.10;;;;;;5053189;28;19931;-50
2022/03/24 11:38:33;;;;;;;;;;;17.70;53.20;;;;;;5053148;28;19972;-51
2022/03/24 11:41:03;;;;;;;;;;;17.70;53.30;;;;;;5052950;28;19967;-51
2022/03/24 11:43:29;;;;;;;;;;;17.90;53.80;;;;;;5053270;28;19979;-51
2022/03/24 11:46:02;;;;;;;;;;;17.70;52.00;;;;;;5053105;28;19929;-49
2022/03/24 11:48:34;;;;;;;;;;;17.90;54.30;;;;;;5053019;28;19971;-53
2022/03/24 11:51:04;;;;;;;;;;;17.90;51.70;;;;;;5052836;28;19924;-49
2022/03/24 11:53:35;;;;;;;;;;;18.00;52.70;;;;;;5052596;28;19928;-51
2022/03/24 11:56:03;;;;;;;;;;;18.10;49.50;;;;;;5052776;28;19921;-49
2022/03/24 11:58:34;;;;;;;;;;;18.10;50.70;;;;;;5052721;28;20381;-49
2022/03/24 12:01:19;;;;;;;;;;;18.20;48.70;;;;;;5052554;28;20306;-49
2022/03/24 12:03:51;;;;;;;;;;;17.90;44.00;;;;;;5035387;28;19929;-50
2022/03/24 12:06:18;;;;;;;;;;;17.80;46.10;;;;;;5052711;28;19967;-49
2022/03/24 12:08:44;;;;;;;;;;;18.00;47.70;;;;;;5052563;28;20351;-49
2022/03/24 12:11:30;;;;;;;;;;;17.90;44.50;;;;;;5052726;28;19951;-48
2022/03/24 12:13:55;;;;;;;;;;;18.00;44.80;;;;;;5052429;28;19971;-48
2022/03/24 12:16:23;;;;;;;;;;;18.00;43.70;;;;;;5034566;28;19925;-48
2022/03/24 12:18:49;;;;;;;;;;;18.10;45.60;;;;;;5052345;28;19929;-52
2022/03/24 12:21:22;;;;;;;;;;;18.10;45.10;;;;;;5052562;28;20305;-51
2022/03/24 12:24:06;;;;;;;;;;;18.10;46.40;;;;;;5034836;28;19960;-52
2022/03/24 12:26:51;;;;;;;;;;;18.10;45.60;;;;;;5052706;28;19932;-48
2022/03/24 12:29:17;;;;;;;;;;;18.30;47.20;;;;;;5052400;28;20441;-50
2022/03/24 12:31:56;;;;;;;;;;;18.40;44.90;;;;;;5052607;28;19971;-49
2022/03/24 12:34:22;;;;;;;;;;;18.40;43.00;;;;;;5034747;28;19950;-48
2022/03/24 12:36:48;;;;;;;;;;;18.40;42.60;;;;;;5052437;28;19940;-48
2022/03/24 12:39:33;;;;;;;;;;;18.30;42.50;;;;;;5052661;28;20027;-49
2022/03/24 12:42:03;;;;;;;;;;;18.40;43.10;;;;;;5051403;28;19925;-48
2022/03/24 12:44:47;;;;;;;;;;;18.40;42.50;;;;;;5052606;28;19932;-49
2022/03/24 12:47:28;;;;;;;;;;;18.30;40.10;;;;;;5052454;28;19945;-49
2022/03/24 12:49:55;;;;;;;;;;;18.50;42.40;;;;;;5034361;28;20023;-48
2022/03/24 12:52:21;;;;;;;;;;;18.40;41.20;;;;;;5051963;28;20020;-48
2022/03/24 12:54:48;;;;;;;;;;;18.40;41.70;;;;;;5052084;28;20039;-48
2022/03/24 12:57:20;;;;;;;;;;;18.40;41.20;;;;;;5052052;28;20383;-48
2022/03/24 12:59:46;;;;;;;;;;;18.50;40.60;;;;;;5052136;28;20347;-48
2022/03/24 13:02:11;;;;;;;;;;;18.40;39.50;;;;;;5052028;28;20386;-48
2022/03/24 13:04:37;;;;;;;;;;;18.60;43.30;;;;;;5052213;28;19925;-48
2022/03/24 13:07:03;;;;;;;;;;;18.60;42.90;;;;;;5052341;28;19924;-48
2022/03/24 13:09:29;;;;;;;;;;;18.60;40.50;;;;;;5052232;28;19929;-52
2022/03/24 13:12:02;;;;;;;;;;;18.80;41.20;;;;;;5052848;28;20015;-49
2022/03/24 13:14:29;;;;;;;;;;;18.70;40.80;;;;;;5055877;28;19932;-48
2022/03/24 13:17:01;;;;;;;;;;;18.80;41.60;;;;;;5055761;28;19931;-51
2022/03/24 13:19:27;;;;;;;;;;;18.80;42.50;;;;;;5055616;28;19924;-49
2022/03/24 13:21:52;;;;;;;;;;;18.80;39.90;;;;;;5055732;28;20031;-52
2022/03/24 13:24:21;;;;;;;;;;;18.90;40.40;;;;;;5037738;28;19925;-52
2022/03/24 13:26:58;;;;;;;;;;;18.90;40.00;;;;;;5037646;28;20328;-51
2022/03/24 13:29:34;;;;;;;;;;;18.90;40.00;;;;;;5055555;28;19932;-50
2022/03/24 13:32:07;;;;;;;;;;;19.00;41.00;;;;;;5038033;28;19946;-52
2022/03/24 13:34:32;;;;;;;;;;;19.00;41.80;;;;;;5055392;28;20429;-49
2022/03/24 13:37:09;;;;;;;;;;;19.10;40.70;;;;;;5055599;28;19925;-51
2022/03/24 13:39:36;;;;;;;;;;;19.10;40.00;;;;;;5055418;28;19924;-50
2022/03/24 13:42:01;;;;;;;;;;;19.10;40.50;;;;;;5037230;28;19932;-49
2022/03/24 13:44:27;;;;;;;;;;;19.10;40.00;;;;;;5054994;28;19929;-51
2022/03/24 13:46:54;;;;;;;;;;;19.20;41.60;;;;;;5037085;28;20409;-51
2022/03/24 13:49:20;;;;;;;;;;;19.10;40.70;;;;;;5055275;28;19931;-49
2022/03/24 13:51:45;;;;;;;;;;;19.10;42.30;;;;;;5054957;28;19925;-51
2022/03/24 13:54:20;;;;;;;;;;;18.90;41.70;;;;;;5055162;28;19925;-52
2022/03/24 13:56:47;;;;;;;;;;;18.90;42.30;;;;;;5055053;28;19925;-49
2022/03/24 13:59:12;;;;;;;;;;;19.00;43.10;;;;;;5055067;28;19925;-52
2022/03/24 14:01:38;;;;;;;;;;;19.10;42.00;;;;;;5054913;28;19932;-49
2022/03/24 14:04:15;;;;;;;;;;;19.10;42.60;;;;;;5055000;28;19925;-52
2022/03/24 14:06:40;;;;;;;;;;;19.20;42.40;;;;;;5054980;28;19924;-52
2022/03/24 14:09:06;;;;;;;;;;;19.10;41.80;;;;;;5037100;28;19925;-52
2022/03/24 14:11:31;;;;;;;;;;;19.20;42.30;;;;;;5054526;28;19989;-49
2022/03/24 14:14:07;;;;;;;;;;;19.20;40.70;;;;;;5054790;28;19983;-49
2022/03/24 14:16:40;;;;;;;;;;;19.30;41.50;;;;;;5054713;28;19931;-49
2022/03/24 14:19:07;;;;;;;;;;;19.30;42.00;;;;;;5054718;28;19925;-52
2022/03/24 14:21:49;;;;;;;;;;;19.30;41.50;;;;;;5054501;28;20015;-49
2022/03/24 14:24:28;;;;;;;;;;;19.30;41.10;;;;;;5054557;28;19929;-49
2022/03/24 14:27:06;;;;;;;;;;;19.50;42.60;;;;;;5054475;28;19924;-48